Spencer, Nebraska
Current Conditions -  °F | °C
As of 8:55 PM on Wednesday 26 Nov 2014 (Local Time) from KONL Reporting Station
Clear Clear  
Wind Chill: 17°   Ceiling: Unl
Heat Index: 17°   Visibility: 10mi
Dew Point: 12°   Wind: 3mph
Humidity: 79%   Direction: 20°NNE
Pressure: 30.4"   Gusts: NA
Location:  42.87°N, 98.7°W
Report Text: KONL 270255Z AUTO 02003KT 10SM CLR M08/M11 A3040 RMK AO2 T10811111
Loading
Personal Weather Stations






























Interactive Weather Map New forecast layout! Learn more

10-Day Weather Forecast

Advertisements
Track Severe Weather on mobile